createdAt,value
2022-08-01T00:01:17.135Z,23.08
2022-08-01T00:03:44.914Z,23.03
2022-08-01T00:06:12.778Z,23.02
2022-08-01T00:08:40.570Z,23.05
2022-08-01T00:11:10.107Z,22.95
2022-08-01T00:13:37.909Z,22.98
2022-08-01T00:16:07.195Z,23.02
2022-08-01T00:18:35.464Z,23.06
2022-08-01T00:21:03.324Z,22.91
2022-08-01T00:23:31.272Z,22.79
2022-08-01T00:25:59.124Z,22.81
2022-08-01T00:28:26.937Z,22.84
2022-08-01T00:30:54.706Z,22.74
2022-08-01T00:33:23.870Z,22.76
2022-08-01T00:35:51.656Z,22.64
2022-08-01T00:38:19.450Z,22.55
2022-08-01T00:40:47.471Z,22.57
2022-08-01T00:43:15.462Z,22.62
2022-08-01T00:45:43.766Z,22.44
2022-08-01T00:48:11.716Z,22.48
2022-08-01T00:50:40.998Z,22.56
2022-08-01T00:53:09.374Z,22.58
2022-08-01T00:55:47.114Z,22.44
2022-08-01T00:58:15.011Z,22.36
2022-08-01T01:00:52.895Z,22.41
2022-08-01T01:03:49.453Z,22.38
2022-08-01T01:06:34.875Z,22.24
2022-08-01T01:09:17.213Z,22.43
2022-08-01T01:11:51.431Z,22.34
2022-08-01T01:14:29.801Z,22.14
2022-08-01T01:17:00.281Z,22.26
2022-08-01T01:19:32.253Z,22.21
2022-08-01T01:22:19.157Z,22.34
2022-08-01T01:24:59.780Z,22.17
2022-08-01T01:27:43.579Z,22.18
2022-08-01T01:30:13.082Z,22.10
2022-08-01T01:32:45.430Z,22.16
2022-08-01T01:35:17.640Z,22.05
2022-08-01T01:37:49.563Z,21.92
2022-08-01T01:40:18.934Z,21.92
2022-08-01T01:42:48.408Z,21.84
2022-08-01T01:45:19.096Z,21.77
2022-08-01T01:47:48.140Z,21.59
2022-08-01T01:50:16.946Z,21.56
2022-08-01T01:52:47.861Z,21.27
2022-08-01T01:55:17.563Z,21.26
2022-08-01T01:57:46.654Z,21.16
2022-08-01T02:00:16.092Z,21.12
2022-08-01T02:02:46.551Z,21.01
2022-08-01T02:05:15.793Z,20.98
2022-08-01T02:07:45.300Z,21.05
2022-08-01T02:10:19.117Z,21.09
2022-08-01T02:12:50.893Z,21.08
2022-08-01T02:15:20.402Z,21.32
2022-08-01T02:17:51.750Z,21.36
2022-08-01T02:20:19.690Z,21.59
2022-08-01T02:22:52.202Z,21.68
2022-08-01T02:25:25.832Z,21.70
2022-08-01T02:28:01.574Z,21.60
2022-08-01T02:30:34.704Z,21.51
2022-08-01T02:33:15.819Z,21.66
2022-08-01T02:36:29.159Z,21.81
2022-08-01T02:38:39.577Z,21.81
2022-08-01T02:41:10.439Z,21.88
2022-08-01T02:43:40.855Z,21.84
2022-08-01T02:46:14.242Z,21.82
2022-08-01T02:48:45.647Z,21.81
2022-08-01T02:51:16.912Z,21.83
2022-08-01T02:53:46.910Z,21.76
2022-08-01T02:56:17.084Z,21.78
2022-08-01T02:58:46.703Z,21.71
2022-08-01T03:01:16.335Z,21.57
2022-08-01T03:03:46.539Z,21.65
2022-08-01T03:06:15.838Z,21.51
2022-08-01T03:08:45.051Z,21.54
2022-08-01T03:11:14.593Z,21.42
2022-08-01T03:13:45.113Z,21.53
2022-08-01T03:16:14.380Z,21.53
2022-08-01T03:18:46.990Z,21.44
2022-08-01T03:21:16.233Z,21.49
2022-08-01T03:23:48.214Z,21.63
2022-08-01T03:26:17.723Z,21.73
2022-08-01T03:28:48.083Z,21.70
2022-08-01T03:31:16.477Z,21.87
2022-08-01T03:33:45.660Z,22.01
2022-08-01T03:36:15.279Z,22.03
2022-08-01T03:38:46.991Z,22.06
2022-08-01T03:41:18.070Z,22.06
2022-08-01T03:43:50.109Z,22.04
2022-08-01T03:46:25.224Z,22.03
2022-08-01T03:49:00.910Z,21.97
2022-08-01T03:51:29.877Z,22.06
2022-08-01T03:53:59.937Z,22.07
2022-08-01T03:56:31.727Z,22.05
2022-08-01T03:59:01.089Z,22.05
2022-08-01T04:01:31.148Z,22.06
2022-08-01T04:04:02.196Z,21.98
2022-08-01T04:06:31.374Z,21.91
2022-08-01T04:08:59.292Z,21.81
2022-08-01T04:11:29.595Z,21.95
2022-08-01T04:13:58.434Z,21.93
2022-08-01T04:16:26.919Z,21.94
2022-08-01T04:18:54.806Z,21.87
2022-08-01T04:21:28.566Z,21.78
2022-08-01T04:24:00.026Z,21.89
2022-08-01T04:26:29.139Z,21.78
2022-08-01T04:28:57.786Z,21.79
2022-08-01T04:31:27.991Z,21.73
2022-08-01T04:33:57.735Z,21.85
2022-08-01T04:36:30.506Z,22.00
2022-08-01T04:39:02.477Z,22.14
2022-08-01T04:41:32.461Z,22.16
2022-08-01T04:44:01.605Z,22.39
2022-08-01T04:46:30.654Z,22.44
2022-08-01T04:48:58.895Z,22.56
2022-08-01T04:51:28.555Z,22.54
2022-08-01T04:53:58.437Z,22.54
2022-08-01T04:56:26.309Z,22.57
2022-08-01T04:59:19.717Z,22.50
2022-08-01T05:01:51.479Z,22.55
2022-08-01T05:04:19.460Z,22.60
2022-08-01T05:06:48.710Z,22.51
2022-08-01T05:09:16.949Z,22.62
2022-08-01T05:11:44.800Z,22.59
2022-08-01T05:14:12.604Z,22.55
2022-08-01T05:16:40.410Z,22.51
2022-08-01T05:19:09.072Z,22.51
2022-08-01T05:21:37.306Z,22.64
2022-08-01T05:24:07.174Z,22.62
2022-08-01T05:26:36.663Z,22.37
2022-08-01T05:29:04.809Z,22.63
2022-08-01T05:31:35.107Z,22.51
2022-08-01T05:34:03.082Z,22.51
2022-08-01T05:36:30.981Z,22.47
2022-08-01T05:38:58.766Z,22.42
2022-08-01T05:41:28.484Z,22.32
2022-08-01T05:43:56.338Z,22.50
2022-08-01T05:46:26.214Z,22.51
2022-08-01T05:48:55.355Z,22.76
2022-08-01T05:51:23.147Z,22.79
2022-08-01T05:53:51.042Z,22.84
2022-08-01T05:56:18.947Z,22.78
2022-08-01T05:58:48.250Z,22.77
2022-08-01T06:01:16.080Z,22.92
2022-08-01T06:03:43.976Z,23.03
2022-08-01T06:06:11.961Z,23.05
2022-08-01T06:08:39.878Z,23.34
2022-08-01T06:11:07.732Z,23.46
2022-08-01T06:13:45.639Z,23.44
2022-08-01T06:16:18.294Z,23.73
2022-08-01T06:18:46.131Z,23.42
2022-08-01T06:21:14.021Z,23.35
2022-08-01T06:23:42.449Z,23.50
2022-08-01T06:26:10.374Z,23.41
2022-08-01T06:28:38.370Z,23.48
2022-08-01T06:31:06.221Z,23.35
2022-08-01T06:33:35.387Z,23.19
2022-08-01T06:36:03.145Z,23.35
2022-08-01T06:38:31.052Z,23.67
2022-08-01T06:40:58.860Z,23.65
2022-08-01T06:43:26.651Z,23.52
2022-08-01T06:45:54.468Z,23.55
2022-08-01T06:48:22.295Z,23.59
2022-08-01T06:51:08.514Z,23.75
2022-08-01T06:53:36.807Z,24.29
2022-08-01T06:56:05.018Z,24.37
2022-08-01T06:58:33.091Z,24.69
2022-08-01T07:01:00.990Z,24.55
2022-08-01T07:03:53.320Z,24.73
2022-08-01T07:06:18.070Z,24.91
2022-08-01T07:08:45.882Z,24.89
2022-08-01T07:11:13.636Z,24.72
2022-08-01T07:13:45.459Z,24.83
2022-08-01T07:16:13.756Z,24.70
2022-08-01T07:18:41.602Z,24.65
2022-08-01T07:21:39.087Z,24.44
2022-08-01T07:23:59.186Z,24.73
2022-08-01T07:26:28.539Z,24.65
2022-08-01T07:28:56.447Z,24.55
2022-08-01T07:31:27.375Z,24.36
2022-08-01T07:33:57.246Z,24.71
2022-08-01T07:36:25.143Z,25.35
2022-08-01T07:38:53.009Z,25.04
2022-08-01T07:41:22.315Z,25.32
2022-08-01T07:44:10.157Z,24.87
2022-08-01T07:46:38.391Z,25.44
2022-08-01T07:49:06.274Z,25.78
2022-08-01T07:51:34.097Z,25.80
2022-08-01T07:54:01.887Z,26.07
2022-08-01T07:56:31.071Z,26.31
2022-08-01T07:58:58.857Z,26.56
2022-08-01T08:01:27.658Z,26.82
2022-08-01T08:03:55.511Z,27.23
2022-08-01T08:06:23.727Z,27.02
2022-08-01T08:08:51.613Z,27.33
2022-08-01T08:11:19.396Z,27.14
2022-08-01T08:13:48.594Z,26.55
2022-08-01T08:16:16.375Z,27.20
2022-08-01T08:18:44.281Z,27.64
2022-08-01T08:21:12.223Z,27.81
2022-08-01T08:23:57.633Z,27.44
2022-08-01T08:26:26.271Z,27.23
2022-08-01T08:28:55.701Z,26.81
2022-08-01T08:31:23.758Z,26.25
2022-08-01T08:34:11.479Z,26.37
2022-08-01T08:36:39.583Z,26.55
2022-08-01T08:39:15.823Z,26.55
2022-08-01T08:41:45.703Z,26.45
2022-08-01T08:44:20.940Z,26.75
2022-08-01T08:46:51.938Z,26.74
2022-08-01T08:49:22.256Z,26.71
2022-08-01T08:51:52.163Z,26.28
2022-08-01T08:54:22.956Z,26.56
2022-08-01T08:56:58.429Z,26.73
2022-08-01T08:59:29.015Z,26.32
2022-08-01T09:01:56.934Z,26.36
2022-08-01T09:04:27.299Z,26.77
2022-08-01T09:06:56.010Z,26.88
2022-08-01T09:09:24.301Z,26.67
2022-08-01T09:11:57.388Z,26.45
2022-08-01T09:14:47.245Z,27.54
2022-08-01T09:17:15.271Z,27.42
2022-08-01T09:19:44.289Z,27.81
2022-08-01T09:22:14.945Z,28.05
2022-08-01T09:24:43.429Z,28.04
2022-08-01T09:27:21.745Z,28.46
2022-08-01T09:30:01.345Z,28.33
2022-08-01T09:32:36.115Z,28.12
2022-08-01T09:35:31.265Z,28.47
2022-08-01T09:38:22.830Z,27.54
2022-08-01T09:40:53.919Z,26.91
2022-08-01T09:43:23.290Z,26.60
2022-08-01T09:45:53.739Z,26.85
2022-08-01T09:48:27.814Z,27.17
2022-08-01T09:51:04.555Z,27.20
2022-08-01T09:53:52.257Z,27.13
2022-08-01T09:56:21.700Z,27.26
2022-08-01T09:58:59.280Z,27.88
2022-08-01T10:01:36.872Z,28.19
2022-08-01T10:04:09.582Z,27.86
2022-08-01T10:06:38.985Z,28.53
2022-08-01T10:09:07.186Z,28.34
2022-08-01T10:11:37.683Z,27.81
2022-08-01T10:14:08.175Z,28.57
2022-08-01T10:16:38.752Z,28.83
2022-08-01T10:19:14.857Z,28.52
2022-08-01T10:21:57.020Z,28.21
2022-08-01T10:24:29.228Z,28.39
2022-08-01T10:27:05.811Z,28.25
2022-08-01T10:29:46.176Z,28.28
2022-08-01T10:32:18.007Z,28.48
2022-08-01T10:34:46.611Z,28.65
2022-08-01T10:37:15.074Z,28.55
2022-08-01T10:39:44.741Z,28.73
2022-08-01T10:42:15.829Z,28.93
2022-08-01T10:44:47.239Z,29.40
2022-08-01T10:47:27.069Z,29.90
2022-08-01T10:50:26.865Z,28.78
2022-08-01T10:53:16.636Z,29.39
2022-08-01T10:55:53.625Z,29.37
2022-08-01T10:58:27.727Z,29.40
2022-08-01T11:01:22.492Z,29.62
2022-08-01T11:04:16.417Z,29.13
2022-08-01T11:06:54.509Z,29.33
2022-08-01T11:09:36.843Z,29.79
2022-08-01T11:12:12.776Z,29.75
2022-08-01T11:15:29.997Z,28.84
2022-08-01T11:18:01.128Z,28.81
2022-08-01T11:20:33.801Z,27.87
2022-08-01T11:23:36.512Z,27.71
2022-08-01T11:26:14.572Z,27.36
2022-08-01T11:29:10.939Z,27.28
2022-08-01T11:31:37.761Z,27.46
2022-08-01T11:34:06.855Z,27.75
2022-08-01T11:36:58.235Z,28.04
2022-08-01T11:39:23.929Z,27.74
2022-08-01T11:41:53.603Z,28.05
2022-08-01T11:44:28.273Z,28.51
2022-08-01T11:47:09.506Z,29.19
2022-08-01T11:49:51.686Z,28.89
2022-08-01T11:52:27.229Z,28.83
2022-08-01T11:54:56.934Z,29.70
2022-08-01T11:57:34.586Z,30.45
2022-08-01T12:00:08.418Z,30.57
2022-08-01T12:02:37.450Z,30.10
2022-08-01T12:05:11.999Z,29.72
2022-08-01T12:07:42.956Z,30.46
2022-08-01T12:10:13.722Z,30.87
2022-08-01T12:12:46.277Z,30.99
2022-08-01T12:15:15.285Z,31.33
2022-08-01T12:17:47.025Z,31.40
2022-08-01T12:20:32.063Z,30.60
2022-08-01T12:23:03.175Z,31.42
2022-08-01T12:25:31.324Z,32.43
2022-08-01T12:28:02.691Z,33.00
2022-08-01T12:30:32.689Z,33.24
2022-08-01T12:33:00.641Z,32.39
2022-08-01T12:35:30.042Z,32.05
2022-08-01T12:37:59.919Z,32.02
2022-08-01T12:43:50.135Z,32.18
2022-08-01T12:46:18.454Z,32.37
2022-08-01T12:48:46.749Z,33.28
2022-08-01T12:51:14.879Z,32.77
2022-08-01T12:53:42.936Z,31.65
2022-08-01T12:56:12.948Z,30.91
2022-08-01T12:58:40.955Z,31.12
2022-08-01T13:01:11.344Z,30.79
2022-08-01T13:03:40.230Z,31.09
2022-08-01T13:06:15.488Z,31.64
2022-08-01T13:08:43.898Z,32.20
2022-08-01T13:11:16.631Z,32.28
2022-08-01T13:13:48.026Z,32.46
2022-08-01T13:16:31.106Z,32.05
2022-08-01T13:19:04.511Z,32.96
2022-08-01T13:21:52.123Z,32.68
2022-08-01T13:24:26.617Z,32.81
2022-08-01T13:27:01.032Z,31.69
2022-08-01T13:29:34.711Z,31.25
2022-08-01T13:32:13.732Z,30.68
2022-08-01T13:35:05.371Z,30.17
2022-08-01T13:37:33.187Z,29.98
2022-08-01T13:40:01.000Z,30.10
2022-08-01T13:42:31.113Z,30.06
2022-08-01T13:44:58.880Z,30.33
2022-08-01T13:47:32.128Z,30.90
2022-08-01T13:50:01.834Z,31.21
2022-08-01T13:52:30.366Z,31.27
2022-08-01T13:54:58.241Z,30.46
2022-08-01T13:57:26.033Z,30.30
2022-08-01T14:00:08.634Z,30.44
2022-08-01T14:02:36.630Z,30.33
2022-08-01T14:05:04.610Z,30.08
2022-08-01T14:07:32.470Z,30.07
2022-08-01T14:10:17.743Z,30.20
2022-08-01T14:12:47.994Z,29.85
2022-08-01T14:15:36.651Z,29.65
2022-08-01T14:18:05.785Z,29.61
2022-08-01T14:20:35.245Z,29.64
2022-08-01T14:23:03.050Z,29.22
2022-08-01T14:26:02.552Z,29.48
2022-08-01T14:28:18.894Z,29.31
2022-08-01T14:30:48.181Z,29.39
2022-08-01T14:33:16.022Z,29.20
2022-08-01T14:36:03.514Z,28.80
2022-08-01T14:40:29.652Z,29.03
2022-08-01T14:42:57.622Z,29.46
2022-08-01T14:45:25.606Z,30.26
2022-08-01T14:47:53.432Z,30.63
2022-08-01T14:50:21.387Z,31.28
2022-08-01T14:52:49.196Z,32.37
2022-08-01T15:02:44.863Z,30.55
2022-08-01T15:05:13.380Z,30.50
2022-08-01T15:07:51.615Z,31.00
2022-08-01T15:10:22.485Z,31.87
2022-08-01T15:12:50.917Z,32.71
2022-08-01T15:15:20.247Z,32.45
2022-08-01T15:17:49.619Z,31.70
2022-08-01T15:20:17.672Z,33.38
2022-08-01T15:22:45.883Z,34.43
2022-08-01T15:25:13.727Z,33.84
2022-08-01T15:27:41.647Z,32.67
2022-08-01T15:30:10.226Z,32.43
2022-08-01T15:32:38.115Z,31.15
2022-08-01T15:35:10.969Z,30.95
2022-08-01T15:37:42.807Z,31.51
2022-08-01T15:40:19.571Z,31.98
2022-08-01T15:42:47.663Z,31.67
2022-08-01T15:45:44.486Z,31.11
2022-08-01T15:48:07.669Z,30.18
2022-08-01T15:50:38.641Z,30.24
2022-08-01T15:53:06.869Z,30.20
2022-08-01T15:55:36.933Z,30.37
2022-08-01T15:58:06.537Z,29.92
2022-08-01T16:00:38.776Z,29.64
2022-08-01T16:03:07.665Z,29.48
2022-08-01T16:05:42.759Z,29.97
2022-08-01T16:08:11.991Z,29.56
2022-08-01T16:10:39.883Z,30.11
2022-08-01T16:13:08.104Z,30.04
2022-08-01T16:15:37.528Z,29.87
2022-08-01T16:18:06.766Z,30.05
2022-08-01T16:20:40.207Z,29.56
2022-08-01T16:23:12.423Z,29.38
2022-08-01T16:25:40.588Z,29.41
2022-08-01T16:28:09.820Z,29.65
2022-08-01T16:30:37.781Z,29.79
2022-08-01T16:33:38.931Z,29.74
2022-08-01T16:36:05.571Z,29.78
2022-08-01T16:38:33.411Z,29.91
2022-08-01T16:41:01.308Z,29.84
2022-08-01T16:43:29.486Z,29.49
2022-08-01T16:45:57.375Z,29.67
2022-08-01T16:48:26.392Z,29.94
2022-08-01T16:50:54.269Z,29.91
2022-08-01T16:53:24.451Z,29.80
2022-08-01T16:55:52.581Z,29.47
2022-08-01T16:58:28.025Z,29.19
2022-08-01T17:00:57.704Z,29.26
2022-08-01T17:03:51.388Z,28.91
2022-08-01T17:06:22.260Z,28.76
2022-08-01T17:08:51.882Z,28.46
2022-08-01T17:11:19.762Z,28.31
2022-08-01T17:13:47.739Z,28.11
2022-08-01T17:16:15.938Z,27.97
2022-08-01T17:18:43.890Z,28.30
2022-08-01T17:21:12.070Z,28.18
2022-08-01T17:23:39.991Z,28.23
2022-08-01T17:26:09.393Z,28.15
2022-08-01T17:28:37.639Z,28.07
2022-08-01T17:31:09.384Z,28.09
2022-08-01T17:33:45.421Z,27.85
2022-08-01T17:36:15.115Z,27.75
2022-08-01T17:38:43.162Z,27.68
2022-08-01T17:41:12.742Z,27.96
2022-08-01T17:43:40.786Z,27.83
2022-08-01T17:46:09.249Z,27.87
2022-08-01T17:48:37.217Z,27.76
2022-08-01T17:51:10.442Z,27.79
2022-08-01T17:53:55.657Z,27.61
2022-08-01T17:56:27.868Z,27.53
2022-08-01T17:58:56.160Z,27.42
2022-08-01T18:01:27.557Z,27.25
2022-08-01T18:03:57.659Z,27.23
2022-08-01T18:06:35.806Z,27.26
2022-08-01T18:09:04.786Z,27.27
2022-08-01T18:11:39.104Z,27.09
2022-08-01T18:14:07.399Z,27.06
2022-08-01T18:16:40.913Z,26.88
2022-08-01T18:19:08.951Z,26.81
2022-08-01T18:21:41.079Z,26.59
2022-08-01T18:24:11.049Z,26.69
2022-08-01T18:26:40.450Z,26.63
2022-08-01T18:29:09.996Z,26.39
2022-08-01T18:31:40.677Z,26.39
2022-08-01T18:34:11.765Z,26.37
2022-08-01T18:36:40.501Z,26.04
2022-08-01T18:39:10.761Z,26.11
2022-08-01T18:41:40.670Z,26.08
2022-08-01T18:44:09.795Z,25.88
2022-08-01T18:46:39.169Z,25.86
2022-08-01T18:49:08.809Z,25.71
2022-08-01T18:51:43.213Z,25.68
2022-08-01T18:54:12.352Z,25.75
2022-08-01T18:56:42.296Z,25.62
2022-08-01T18:59:10.801Z,25.59
2022-08-01T19:01:39.806Z,25.54
2022-08-01T19:04:08.174Z,25.72
2022-08-01T19:06:36.288Z,25.58
2022-08-01T19:09:04.941Z,25.51
2022-08-01T19:11:33.987Z,25.28
2022-08-01T19:14:03.990Z,25.28
2022-08-01T19:16:32.507Z,25.19
2022-08-01T19:19:01.872Z,25.14
2022-08-01T19:21:32.954Z,25.06
2022-08-01T19:24:23.586Z,24.98
2022-08-01T19:26:53.929Z,24.86
2022-08-01T19:29:32.979Z,24.72
2022-08-01T19:32:06.658Z,24.51
2022-08-01T19:34:37.499Z,24.67
2022-08-01T19:37:06.123Z,24.54
2022-08-01T19:39:34.402Z,24.48
2022-08-01T19:42:04.040Z,24.40
2022-08-01T19:44:33.710Z,24.35
2022-08-01T19:47:02.825Z,24.48
2022-08-01T19:49:30.737Z,24.44
2022-08-01T19:52:02.474Z,24.46
2022-08-01T19:54:35.136Z,24.44
2022-08-01T19:57:04.323Z,24.52
2022-08-01T19:59:35.210Z,24.60
2022-08-01T20:02:03.726Z,24.56
2022-08-01T20:04:31.699Z,24.67
2022-08-01T20:06:59.734Z,24.63
2022-08-01T20:09:28.670Z,24.55
2022-08-01T20:11:56.795Z,24.39
2022-08-01T20:14:26.675Z,24.32
2022-08-01T20:16:57.349Z,24.11
2022-08-01T20:19:26.781Z,23.93
2022-08-01T20:22:02.778Z,23.84
2022-08-01T20:24:39.760Z,23.75
2022-08-01T20:27:11.111Z,23.84
2022-08-01T20:29:40.593Z,23.73
2022-08-01T20:32:10.107Z,23.63
2022-08-01T20:34:40.100Z,23.53
2022-08-01T20:37:12.693Z,23.37
2022-08-01T20:39:45.087Z,23.40
2022-08-01T20:42:14.083Z,23.34
2022-08-01T20:44:42.797Z,23.17
2022-08-01T20:47:15.936Z,22.92
2022-08-01T20:49:44.692Z,23.16
2022-08-01T20:52:13.007Z,23.17
2022-08-01T20:54:42.143Z,23.23
2022-08-01T20:57:16.892Z,23.18
2022-08-01T20:59:55.773Z,23.03
2022-08-01T21:02:38.830Z,23.01
2022-08-01T21:05:10.668Z,22.97
2022-08-01T21:07:43.632Z,22.74
2022-08-01T21:10:13.060Z,22.83
2022-08-01T21:12:46.123Z,22.72
2022-08-01T21:15:25.316Z,22.72
2022-08-01T21:18:02.368Z,22.61
2022-08-01T21:20:33.363Z,22.64
2022-08-01T21:23:22.782Z,22.62
2022-08-01T21:25:50.841Z,22.48
2022-08-01T21:28:19.838Z,22.39
2022-08-01T21:30:55.798Z,22.29
2022-08-01T21:33:28.367Z,22.30
2022-08-01T21:36:01.355Z,22.35
2022-08-01T21:38:34.542Z,22.26
2022-08-01T21:41:04.721Z,22.16
2022-08-01T21:43:34.299Z,22.02
2022-08-01T21:46:03.018Z,22.05
2022-08-01T21:48:33.523Z,21.97
2022-08-01T21:51:06.740Z,21.91
2022-08-01T21:54:00.325Z,21.91
2022-08-01T21:56:37.574Z,21.89
2022-08-01T21:59:16.050Z,21.77
2022-08-01T22:01:53.097Z,21.70
2022-08-01T22:04:33.371Z,21.63
2022-08-01T22:07:03.791Z,21.63
2022-08-01T22:09:33.024Z,21.53
2022-08-01T22:12:06.918Z,21.39
2022-08-01T22:14:40.280Z,21.33
2022-08-01T22:17:09.346Z,21.37
2022-08-01T22:19:45.582Z,21.32
2022-08-01T22:22:51.429Z,21.33
2022-08-01T22:25:03.761Z,21.37
2022-08-01T22:28:03.222Z,21.24
2022-08-01T22:30:20.865Z,21.14
2022-08-01T22:33:07.191Z,21.16
2022-08-01T22:35:39.961Z,21.13
2022-08-01T22:38:09.838Z,21.00
2022-08-01T22:40:45.062Z,21.08
2022-08-01T22:43:23.965Z,20.93
2022-08-01T22:46:01.383Z,20.89
2022-08-01T22:48:38.720Z,20.87
2022-08-01T22:51:25.127Z,20.82
2022-08-01T22:53:59.671Z,20.72
2022-08-01T22:56:30.544Z,20.70
2022-08-01T22:59:02.840Z,20.71
2022-08-01T23:01:33.247Z,20.64
2022-08-01T23:04:01.934Z,20.59
2022-08-01T23:06:42.548Z,20.54
2022-08-01T23:09:10.922Z,20.64
2022-08-01T23:11:39.775Z,20.67
2022-08-01T23:14:08.565Z,20.61
2022-08-01T23:16:38.292Z,20.65
2022-08-01T23:19:11.311Z,20.82
2022-08-01T23:21:42.210Z,20.76
2022-08-01T23:24:11.171Z,20.67
2022-08-01T23:26:39.410Z,20.54
2022-08-01T23:29:08.764Z,20.47
2022-08-01T23:31:51.771Z,20.37
2022-08-01T23:34:28.182Z,20.35
2022-08-01T23:36:57.519Z,20.26
2022-08-01T23:39:25.430Z,20.27
2022-08-01T23:41:58.038Z,20.18
2022-08-01T23:44:26.725Z,20.17
2022-08-01T23:46:54.705Z,20.20
2022-08-01T23:49:22.752Z,20.21
2022-08-01T23:51:50.982Z,20.27
2022-08-01T23:54:20.598Z,20.20
2022-08-01T23:56:49.073Z,20.22
2022-08-01T23:59:17.192Z,20.19
